KGSB/GSB METAR and TAF weather

Enter ICAO airport designator
Station Type Date Time Source
KGSB METAR 2023/09/28 20:55 UTC NOAA

KGSB 282055Z 05006KT 10SM OVC022 23/19 A3002 RMK AO2A SLP169 WND DATA ESTMD T02270186 57013 $


Station Type Date Time Source
KGSB Decoded METAR 2023/09/28 20:55 UTC NOAA

Seymour-Johnson Air Force Base, NC, United States (KGSB) 35-20N 077-58W
Sep 28, 2023 - 04:55 PM EDT / 2023.09.28 2055 UTC
Wind: from the NE (050 degrees) at 7 MPH (6 KT):0
Visibility: 10 mile(s):0
Sky conditions: overcast
Temperature: 72.9 F (22.7 C)
Dew Point: 65.5 F (18.6 C)
Relative Humidity: 77%
Pressure (altimeter): 30.02 in. Hg (1016 hPa)
Pressure tendency: 0.04 inches (1.3 hPa) lower than three hours ago
ob: KGSB 282055Z 05006KT 10SM OVC022 23/19 A3002 RMK AO2A SLP169 WND DATA ESTMD T02270186 57013
cycle: 21

Station Type Date Time Source
KGSB TAF 2023/09/28 20:00 UTC NOAA

TAF KGSB 282000Z 2820/3002 02010KT 9999 BKN023 BKN035 QNH3000INS
TEMPO 2820/2903 SCT023
BECMG 2903/2904 01008KT 9999 BKN020 QNH2999INS
BECMG 2905/2906 03006KT 9999 OVC010 QNH2998INS
BECMG 2913/2914 03009KT 9999 BKN018 QNH3000INS
BECMG 2916/2917 01012KT 9999 SCT018 BKN025 QNH2999INS TX24/2820Z TN16/2909Z

Example: see airport list